createdAt,value
2023-04-07T00:01:38.145Z,17.43
2023-04-07T00:04:07.094Z,17.83
2023-04-07T00:06:34.020Z,18.47
2023-04-07T00:09:01.001Z,16.83
2023-04-07T00:11:27.795Z,17.47
2023-04-07T00:13:57.112Z,18.47
2023-04-07T00:16:26.348Z,17.87
2023-04-07T00:18:55.337Z,17.93
2023-04-07T00:21:24.630Z,18.37
2023-04-07T00:23:53.970Z,18.57
2023-04-07T00:26:23.335Z,18.20
2023-04-07T00:28:52.362Z,18.70
2023-04-07T00:31:19.209Z,18.13
2023-04-07T00:33:49.497Z,19.47
2023-04-07T00:36:18.777Z,19.13
2023-04-07T00:38:50.004Z,20.27
2023-04-07T00:41:16.759Z,18.90
2023-04-07T00:43:46.196Z,19.97
2023-04-07T00:46:13.070Z,20.20
2023-04-07T00:48:39.830Z,19.87
2023-04-07T00:51:11.305Z,20.23
2023-04-07T00:53:40.502Z,17.90
2023-04-07T00:56:07.551Z,19.63
2023-04-07T00:58:34.297Z,19.50
2023-04-07T01:01:30.955Z,20.17
2023-04-07T01:04:02.289Z,20.07
2023-04-07T01:06:31.999Z,19.63
2023-04-07T01:09:05.386Z,19.73
2023-04-07T01:11:43.899Z,19.60
2023-04-07T01:14:11.355Z,20.00
2023-04-07T01:16:49.186Z,19.40
2023-04-07T01:19:36.732Z,20.20
2023-04-07T01:22:24.204Z,19.60
2023-04-07T01:25:43.938Z,20.10
2023-04-07T01:28:46.283Z,19.67
2023-04-07T01:31:13.772Z,20.47
2023-04-07T01:33:43.079Z,21.67
2023-04-07T01:36:12.445Z,22.20
2023-04-07T01:38:39.214Z,21.97
2023-04-07T01:41:06.229Z,22.40
2023-04-07T01:43:33.003Z,21.63
2023-04-07T01:45:59.734Z,22.27
2023-04-07T01:48:26.533Z,23.60
2023-04-07T01:50:55.814Z,22.87
2023-04-07T01:53:22.976Z,22.53
2023-04-07T01:55:49.777Z,23.57
2023-04-07T01:58:16.975Z,22.30
2023-04-07T02:00:43.773Z,23.37
2023-04-07T02:03:21.634Z,24.07
2023-04-07T02:05:49.659Z,22.70
2023-04-07T02:08:17.744Z,22.43
2023-04-07T02:10:45.816Z,24.37
2023-04-07T02:13:16.725Z,23.30
2023-04-07T02:15:44.258Z,23.90
2023-04-07T02:18:12.922Z,24.40
2023-04-07T02:20:40.098Z,25.03
2023-04-07T02:23:10.698Z,24.67
2023-04-07T02:25:39.713Z,25.70
2023-04-07T02:28:07.167Z,25.13
2023-04-07T02:30:36.524Z,26.10
2023-04-07T02:33:05.650Z,25.87
2023-04-07T02:35:39.371Z,24.77
2023-04-07T02:38:08.414Z,25.43
2023-04-07T02:40:36.711Z,26.03
2023-04-07T02:43:05.179Z,23.83
2023-04-07T02:45:31.993Z,24.33
2023-04-07T02:48:01.051Z,25.60
2023-04-07T02:50:29.217Z,24.77
2023-04-07T02:52:56.741Z,26.03
2023-04-07T02:55:24.022Z,26.03
2023-04-07T02:57:58.500Z,25.80
2023-04-07T03:00:28.162Z,26.17
2023-04-07T03:03:00.104Z,27.37
2023-04-07T03:05:27.238Z,26.60
2023-04-07T03:07:54.407Z,25.17
2023-04-07T03:10:23.824Z,24.93
2023-04-07T03:12:51.037Z,25.30
2023-04-07T03:15:20.155Z,27.07
2023-04-07T03:17:47.027Z,27.00
2023-04-07T03:20:14.400Z,27.73
2023-04-07T03:22:41.775Z,27.00
2023-04-07T03:25:11.094Z,27.43
2023-04-07T03:27:37.875Z,28.50
2023-04-07T03:30:05.057Z,26.43
2023-04-07T03:32:36.514Z,28.60
2023-04-07T03:35:03.393Z,29.37
2023-04-07T03:37:30.796Z,28.53
2023-04-07T03:39:57.942Z,28.83
2023-04-07T03:42:27.255Z,28.47
2023-04-07T03:44:56.193Z,28.50
2023-04-07T03:47:23.340Z,29.17
2023-04-07T03:49:50.533Z,28.57
2023-04-07T03:52:17.801Z,28.37
2023-04-07T03:54:44.546Z,28.63
2023-04-07T03:57:11.356Z,28.90
2023-04-07T03:59:41.479Z,29.60
2023-04-07T04:02:08.895Z,29.27
2023-04-07T04:04:36.481Z,29.90
2023-04-07T04:07:03.746Z,30.43
2023-04-07T04:09:31.063Z,30.77
2023-04-07T04:11:58.296Z,30.40
2023-04-07T04:14:25.097Z,30.13
2023-04-07T04:16:54.139Z,29.20
2023-04-07T04:19:21.494Z,29.63
2023-04-07T04:21:48.643Z,28.80
2023-04-07T04:24:19.907Z,30.00
2023-04-07T04:26:46.717Z,30.17
2023-04-07T04:29:13.860Z,29.27
2023-04-07T04:31:40.701Z,28.47
2023-04-07T04:34:07.730Z,28.50
2023-04-07T04:36:38.389Z,29.57
2023-04-07T04:39:05.678Z,28.80
2023-04-07T04:41:32.914Z,29.10
2023-04-07T04:44:01.941Z,29.57
2023-04-07T04:46:31.934Z,27.17
2023-04-07T04:48:58.844Z,27.63
2023-04-07T04:51:26.331Z,28.07
2023-04-07T04:53:53.675Z,28.83
2023-04-07T04:56:21.406Z,28.90
2023-04-07T04:58:48.189Z,29.07
2023-04-07T05:01:15.684Z,30.60
2023-04-07T05:03:42.797Z,29.93
2023-04-07T05:06:10.404Z,29.67
2023-04-07T05:08:37.673Z,28.43
2023-04-07T05:11:04.477Z,29.57
2023-04-07T05:13:31.676Z,29.90
2023-04-07T05:15:58.898Z,30.07
2023-04-07T05:18:26.227Z,30.97
2023-04-07T05:20:52.973Z,30.27
2023-04-07T05:23:19.738Z,30.57
2023-04-07T05:25:46.915Z,28.83
2023-04-07T05:28:14.066Z,29.93
2023-04-07T05:30:40.841Z,29.97
2023-04-07T05:33:10.403Z,29.10
2023-04-07T05:35:37.590Z,29.30
2023-04-07T05:38:04.761Z,29.00
2023-04-07T05:40:31.584Z,30.00
2023-04-07T05:43:01.002Z,29.83
2023-04-07T05:45:27.745Z,29.40
2023-04-07T05:47:54.945Z,30.13
2023-04-07T05:50:24.592Z,30.30
2023-04-07T05:52:54.097Z,30.13
2023-04-07T05:55:21.563Z,31.07
2023-04-07T05:57:49.383Z,30.37
2023-04-07T06:00:19.788Z,30.57
2023-04-07T06:02:49.118Z,29.50
2023-04-07T06:05:16.245Z,28.90
2023-04-07T06:07:43.424Z,29.77
2023-04-07T06:10:10.506Z,29.70
2023-04-07T06:12:37.297Z,29.43
2023-04-07T06:15:04.273Z,28.70
2023-04-07T06:17:31.472Z,28.37
2023-04-07T06:19:58.294Z,28.73
2023-04-07T06:22:27.258Z,29.33
2023-04-07T06:24:54.103Z,28.90
2023-04-07T06:27:25.670Z,29.10
2023-04-07T06:29:52.390Z,29.17
2023-04-07T06:32:21.825Z,29.87
2023-04-07T06:34:51.180Z,27.57
2023-04-07T06:37:18.275Z,28.80
2023-04-07T06:39:45.882Z,28.80
2023-04-07T06:42:13.048Z,28.47
2023-04-07T06:44:40.345Z,28.33
2023-04-07T06:47:07.539Z,29.37
2023-04-07T06:49:36.568Z,29.00
2023-04-07T06:52:06.554Z,27.33
2023-04-07T06:54:33.425Z,27.23
2023-04-07T06:57:01.589Z,28.10
2023-04-07T06:59:28.769Z,26.73
2023-04-07T07:01:55.790Z,28.90
2023-04-07T07:04:22.755Z,28.57
2023-04-07T07:06:49.708Z,28.30
2023-04-07T07:09:16.959Z,28.43
2023-04-07T07:11:44.149Z,28.13
2023-04-07T07:14:11.301Z,28.00
2023-04-07T07:16:38.085Z,29.90
2023-04-07T07:19:07.192Z,27.53
2023-04-07T07:21:34.345Z,28.57
2023-04-07T07:24:01.214Z,28.83
2023-04-07T07:26:30.487Z,27.83
2023-04-07T07:28:59.825Z,29.83
2023-04-07T07:31:26.619Z,28.23
2023-04-07T07:33:53.402Z,27.80
2023-04-07T07:36:22.544Z,27.53
2023-04-07T07:38:52.978Z,26.47
2023-04-07T07:41:21.135Z,27.13
2023-04-07T07:43:48.270Z,25.40
2023-04-07T07:46:15.563Z,27.43
2023-04-07T07:48:42.406Z,27.67
2023-04-07T07:51:09.241Z,27.17
2023-04-07T07:53:36.414Z,27.07
2023-04-07T07:56:03.627Z,26.50
2023-04-07T07:58:32.703Z,24.67
2023-04-07T08:00:59.484Z,26.10
2023-04-07T08:03:26.488Z,25.20
2023-04-07T08:05:53.391Z,25.97
2023-04-07T08:08:20.816Z,24.77
2023-04-07T08:10:48.937Z,26.23
2023-04-07T08:13:16.076Z,25.27
2023-04-07T08:15:45.565Z,26.47
2023-04-07T08:18:12.372Z,25.37
2023-04-07T08:20:39.621Z,24.33
2023-04-07T08:23:06.368Z,24.27
2023-04-07T08:25:33.552Z,23.63
2023-04-07T08:28:00.527Z,23.27
2023-04-07T08:30:29.706Z,22.17
2023-04-07T08:32:56.892Z,22.60
2023-04-07T08:35:24.244Z,21.83
2023-04-07T08:37:53.457Z,23.10
2023-04-07T08:40:25.352Z,22.13
2023-04-07T08:42:52.717Z,22.53
2023-04-07T08:45:19.990Z,22.13
2023-04-07T08:47:50.484Z,20.97
2023-04-07T08:50:18.396Z,21.90
2023-04-07T08:52:46.642Z,21.53
2023-04-07T08:55:13.427Z,20.97
2023-04-07T08:57:45.424Z,20.97
2023-04-07T09:00:14.779Z,19.87
2023-04-07T09:02:44.569Z,19.67
2023-04-07T09:05:17.075Z,19.37
2023-04-07T09:07:46.793Z,19.30
2023-04-07T09:10:13.998Z,19.77
2023-04-07T09:12:41.246Z,18.70
2023-04-07T09:15:08.424Z,18.30
2023-04-07T09:17:35.720Z,18.43
2023-04-07T09:20:03.029Z,19.53
2023-04-07T09:22:43.486Z,21.23
2023-04-07T09:25:20.297Z,19.50
2023-04-07T09:28:03.516Z,19.10
2023-04-07T09:30:31.311Z,19.33
2023-04-07T09:32:58.712Z,19.43
2023-04-07T09:35:28.851Z,17.90
2023-04-07T09:38:05.603Z,18.53
2023-04-07T09:40:34.914Z,19.10
2023-04-07T09:43:02.256Z,18.20
2023-04-07T09:45:39.285Z,19.63
2023-04-07T09:48:07.852Z,17.93
2023-04-07T09:50:38.460Z,18.10
2023-04-07T09:53:05.757Z,18.87
2023-04-07T09:55:33.910Z,17.97
2023-04-07T09:58:00.949Z,17.43
2023-04-07T10:00:30.094Z,18.00
2023-04-07T10:02:57.953Z,18.17
2023-04-07T10:05:27.611Z,17.80
2023-04-07T10:07:54.717Z,17.33
2023-04-07T10:10:21.945Z,18.37
2023-04-07T10:12:51.342Z,16.97
2023-04-07T10:15:18.514Z,17.70
2023-04-07T10:17:48.736Z,19.20
2023-04-07T10:20:17.417Z,17.17
2023-04-07T10:22:44.562Z,18.43
2023-04-07T10:25:13.335Z,17.53
2023-04-07T10:27:51.749Z,17.43
2023-04-07T10:30:25.705Z,18.97
2023-04-07T10:32:53.508Z,18.37
2023-04-07T10:35:22.028Z,18.27
2023-04-07T10:38:10.597Z,18.23
2023-04-07T10:40:38.029Z,19.37
2023-04-07T10:43:06.562Z,17.67
2023-04-07T10:45:53.804Z,17.60
2023-04-07T10:48:23.433Z,18.23
2023-04-07T10:51:14.361Z,17.43
2023-04-07T10:54:29.100Z,17.67
2023-04-07T10:57:12.018Z,16.37
2023-04-07T10:59:45.092Z,15.70
2023-04-07T11:02:15.051Z,15.37
2023-04-07T11:04:45.940Z,16.43
2023-04-07T11:07:13.913Z,16.10
2023-04-07T11:09:41.037Z,15.70
2023-04-07T11:12:22.319Z,15.03
2023-04-07T11:14:59.833Z,13.73
2023-04-07T11:17:28.240Z,14.27
2023-04-07T11:19:57.569Z,14.07
2023-04-07T11:22:30.038Z,14.40
2023-04-07T11:24:59.919Z,14.57
2023-04-07T11:27:29.298Z,14.00
2023-04-07T11:29:57.073Z,14.03
2023-04-07T11:32:29.896Z,14.23
2023-04-07T11:34:57.534Z,13.83
2023-04-07T11:37:29.036Z,13.10
2023-04-07T11:39:56.898Z,13.87
2023-04-07T11:42:39.459Z,13.93
2023-04-07T11:45:16.105Z,13.70
2023-04-07T11:47:43.171Z,13.67
2023-04-07T11:50:14.330Z,15.17
2023-04-07T11:52:48.398Z,13.83
2023-04-07T11:55:24.607Z,12.77
2023-04-07T11:57:52.038Z,13.67
2023-04-07T12:00:19.817Z,12.67
2023-04-07T12:02:49.316Z,11.83
2023-04-07T12:05:16.181Z,12.40
2023-04-07T12:07:52.858Z,11.10
2023-04-07T12:10:23.879Z,11.23
2023-04-07T12:12:51.654Z,11.83
2023-04-07T12:15:18.847Z,11.83
2023-04-07T12:17:49.165Z,12.40
2023-04-07T12:20:16.437Z,12.60
2023-04-07T12:22:43.227Z,12.93
2023-04-07T12:25:12.781Z,12.90
2023-04-07T12:27:43.649Z,12.80
2023-04-07T12:30:11.751Z,13.23
2023-04-07T12:32:39.128Z,13.00
2023-04-07T12:35:06.443Z,14.43
2023-04-07T12:37:35.839Z,13.73
2023-04-07T12:40:03.035Z,12.33
2023-04-07T12:42:29.835Z,11.37
2023-04-07T12:44:57.238Z,11.47
2023-04-07T12:47:24.507Z,10.80
2023-04-07T12:49:51.350Z,8.83
2023-04-07T12:52:20.971Z,6.00
2023-04-07T12:54:49.939Z,4.23
2023-04-07T12:57:16.816Z,3.50
2023-04-07T12:59:44.848Z,3.13
2023-04-07T13:02:13.662Z,3.00
2023-04-07T13:04:40.859Z,2.67
2023-04-07T13:07:09.721Z,2.47
2023-04-07T13:09:43.432Z,2.93
2023-04-07T13:12:13.570Z,2.43
2023-04-07T13:14:52.966Z,2.17
2023-04-07T13:17:24.286Z,2.57
2023-04-07T13:19:54.316Z,2.63
2023-04-07T13:22:26.824Z,2.60
2023-04-07T13:24:53.676Z,2.73
2023-04-07T13:27:21.278Z,3.00
2023-04-07T13:29:49.038Z,2.40
2023-04-07T13:32:17.031Z,2.50
2023-04-07T13:34:44.490Z,2.77
2023-04-07T13:37:11.409Z,3.20
2023-04-07T13:39:40.446Z,3.10
2023-04-07T13:42:07.453Z,2.67
2023-04-07T13:44:34.741Z,3.07
2023-04-07T13:47:02.074Z,2.97
2023-04-07T13:49:31.806Z,3.27
2023-04-07T13:51:58.982Z,3.10
2023-04-07T13:54:27.997Z,3.17
2023-04-07T13:56:54.732Z,3.27
2023-04-07T13:59:24.393Z,2.90
2023-04-07T14:01:53.779Z,2.80
2023-04-07T14:04:21.155Z,3.30
2023-04-07T14:06:48.342Z,3.30
2023-04-07T14:09:15.548Z,3.57
2023-04-07T14:11:42.406Z,3.33
2023-04-07T14:14:09.650Z,3.37
2023-04-07T14:16:40.827Z,3.23
2023-04-07T14:19:07.607Z,3.60
2023-04-07T14:21:34.393Z,3.10
2023-04-07T14:24:01.579Z,3.10
2023-04-07T14:26:30.589Z,3.53
2023-04-07T14:28:59.820Z,3.50
2023-04-07T14:31:26.720Z,2.93
2023-04-07T14:33:55.517Z,2.80
2023-04-07T14:36:22.792Z,2.80
2023-04-07T14:38:51.769Z,2.63
2023-04-07T14:41:18.778Z,2.53
2023-04-07T14:43:48.412Z,2.67
2023-04-07T14:46:15.438Z,2.90
2023-04-07T14:48:42.267Z,2.63
2023-04-07T14:51:15.450Z,2.90
2023-04-07T14:53:45.888Z,3.43
2023-04-07T14:56:15.685Z,3.30
2023-04-07T14:58:42.836Z,3.67
2023-04-07T15:01:09.621Z,3.20
2023-04-07T15:03:37.083Z,3.00
2023-04-07T15:06:11.475Z,3.60
2023-04-07T15:08:38.590Z,3.17
2023-04-07T15:11:11.103Z,2.97
2023-04-07T15:13:38.322Z,3.60
2023-04-07T15:16:12.398Z,3.70
2023-04-07T15:18:42.417Z,3.20
2023-04-07T15:21:09.818Z,3.90
2023-04-07T15:23:39.146Z,3.60
2023-04-07T15:26:08.573Z,3.60
2023-04-07T15:28:35.981Z,4.17
2023-04-07T15:31:02.844Z,3.93
2023-04-07T15:33:32.354Z,3.70
2023-04-07T15:36:01.575Z,3.73
2023-04-07T15:38:29.303Z,3.77
2023-04-07T15:40:58.551Z,3.63
2023-04-07T15:43:25.707Z,4.07
2023-04-07T15:45:52.860Z,3.57
2023-04-07T15:48:21.770Z,3.90
2023-04-07T15:50:48.518Z,3.60
2023-04-07T15:53:15.267Z,4.07
2023-04-07T15:55:46.758Z,3.70
2023-04-07T15:58:13.987Z,4.57
2023-04-07T16:00:40.840Z,2.87
2023-04-07T16:03:08.344Z,3.33
2023-04-07T16:05:35.303Z,2.57
2023-04-07T16:08:02.103Z,3.13
2023-04-07T16:10:29.312Z,3.00
2023-04-07T16:13:00.762Z,2.70
2023-04-07T16:15:39.249Z,2.60
2023-04-07T16:18:10.212Z,2.43
2023-04-07T16:20:39.599Z,2.43
2023-04-07T16:23:06.354Z,2.50
2023-04-07T16:25:35.270Z,2.47
2023-04-07T16:28:04.696Z,2.97
2023-04-07T16:30:31.429Z,3.03
2023-04-07T16:33:00.367Z,3.23
2023-04-07T16:35:27.202Z,3.00
2023-04-07T16:38:04.764Z,3.10
2023-04-07T16:40:32.480Z,2.97
2023-04-07T16:42:59.267Z,3.07
2023-04-07T16:45:26.444Z,3.10
2023-04-07T16:47:55.458Z,2.83
2023-04-07T16:50:26.694Z,3.43
2023-04-07T16:52:57.631Z,3.80
2023-04-07T16:55:29.408Z,3.40
2023-04-07T16:57:58.676Z,3.00
2023-04-07T17:00:26.045Z,3.10
2023-04-07T17:02:52.941Z,2.80
2023-04-07T17:05:20.337Z,3.10
2023-04-07T17:07:49.868Z,2.93
2023-04-07T17:10:16.660Z,2.93
2023-04-07T17:12:43.629Z,2.63
2023-04-07T17:15:11.148Z,3.17
2023-04-07T17:17:39.369Z,3.03
2023-04-07T17:20:11.361Z,2.90
2023-04-07T17:22:40.594Z,3.40
2023-04-07T17:25:07.997Z,3.50
2023-04-07T17:27:35.440Z,2.83
2023-04-07T17:30:08.344Z,3.40
2023-04-07T17:32:35.509Z,3.30
2023-04-07T17:35:02.438Z,3.67
2023-04-07T17:37:29.258Z,3.57
2023-04-07T17:39:56.115Z,3.57
2023-04-07T17:42:25.580Z,4.00
2023-04-07T17:44:53.862Z,3.70
2023-04-07T17:47:23.193Z,3.90
2023-04-07T17:49:50.015Z,4.07
2023-04-07T17:52:19.027Z,4.23
2023-04-07T17:54:46.311Z,3.67
2023-04-07T17:57:15.939Z,4.17
2023-04-07T17:59:42.783Z,4.50
2023-04-07T18:02:12.193Z,4.00
2023-04-07T18:04:41.741Z,5.17
2023-04-07T18:07:09.466Z,4.50
2023-04-07T18:09:38.523Z,4.00
2023-04-07T18:12:06.338Z,3.90
2023-04-07T18:14:35.585Z,4.00
2023-04-07T18:17:02.398Z,3.70
2023-04-07T18:19:32.988Z,4.07
2023-04-07T18:22:00.994Z,3.70
2023-04-07T18:24:30.276Z,3.50
2023-04-07T18:26:59.375Z,3.70
2023-04-07T18:29:27.192Z,3.57
2023-04-07T18:31:54.373Z,3.70
2023-04-07T18:34:21.394Z,3.80
2023-04-07T18:36:48.973Z,3.60
2023-04-07T18:39:16.172Z,3.90
2023-04-07T18:41:47.397Z,3.27
2023-04-07T18:44:14.848Z,3.63
2023-04-07T18:46:41.789Z,3.80
2023-04-07T18:49:10.278Z,4.30
2023-04-07T18:51:39.661Z,4.10
2023-04-07T18:54:06.911Z,4.10
2023-04-07T18:56:35.939Z,4.27
2023-04-07T18:59:03.925Z,4.30
2023-04-07T19:01:31.436Z,4.70
2023-04-07T19:04:01.595Z,4.40
2023-04-07T19:06:30.484Z,4.60
2023-04-07T19:08:57.837Z,5.63
2023-04-07T19:11:29.380Z,4.90
2023-04-07T19:13:56.657Z,5.60
2023-04-07T19:16:26.883Z,5.43
2023-04-07T19:18:54.433Z,5.40
2023-04-07T19:21:21.629Z,5.50
2023-04-07T19:23:51.299Z,6.23
2023-04-07T19:26:18.672Z,6.10
2023-04-07T19:28:46.252Z,7.20
2023-04-07T19:31:13.150Z,6.33
2023-04-07T19:33:42.711Z,6.93
2023-04-07T19:36:09.504Z,6.53
2023-04-07T19:38:36.392Z,6.43
2023-04-07T19:41:03.326Z,7.07
2023-04-07T19:43:30.929Z,6.37
2023-04-07T19:45:58.043Z,6.90
2023-04-07T19:48:27.673Z,6.83
2023-04-07T19:50:57.056Z,7.47
2023-04-07T19:53:28.391Z,6.87
2023-04-07T19:55:55.577Z,6.80
2023-04-07T19:58:23.418Z,6.80
2023-04-07T20:00:51.697Z,6.50
2023-04-07T20:03:19.784Z,5.97
2023-04-07T20:05:46.741Z,5.63
2023-04-07T20:08:16.493Z,6.23
2023-04-07T20:10:47.710Z,5.57
2023-04-07T20:13:17.202Z,5.53
2023-04-07T20:15:44.094Z,4.83
2023-04-07T20:18:11.254Z,5.37
2023-04-07T20:20:40.341Z,5.10
2023-04-07T20:23:07.526Z,4.83
2023-04-07T20:25:34.822Z,4.50
2023-04-07T20:28:01.624Z,4.10
2023-04-07T20:30:30.626Z,4.57
2023-04-07T20:32:57.551Z,4.17
2023-04-07T20:35:26.686Z,4.53
2023-04-07T20:37:53.492Z,4.10
2023-04-07T20:40:24.954Z,4.03
2023-04-07T20:42:52.159Z,4.67
2023-04-07T20:45:21.674Z,3.97
2023-04-07T20:47:49.461Z,3.93
2023-04-07T20:50:16.310Z,4.17
2023-04-07T20:52:43.873Z,4.20
2023-04-07T20:55:15.280Z,4.10
2023-04-07T20:57:42.209Z,4.70
2023-04-07T21:00:12.193Z,5.07
2023-04-07T21:02:39.092Z,5.23
2023-04-07T21:05:08.890Z,5.27
2023-04-07T21:07:38.355Z,5.27
2023-04-07T21:10:05.606Z,5.77
2023-04-07T21:12:32.401Z,5.43
2023-04-07T21:14:59.623Z,7.30
2023-04-07T21:17:28.701Z,5.90
2023-04-07T21:19:55.668Z,5.60
2023-04-07T21:22:22.414Z,6.57
2023-04-07T21:24:53.011Z,5.87
2023-04-07T21:27:22.070Z,6.20
2023-04-07T21:29:53.550Z,6.10
2023-04-07T21:32:20.731Z,5.77
2023-04-07T21:34:49.942Z,5.77
2023-04-07T21:37:19.194Z,6.13
2023-04-07T21:39:46.647Z,5.93
2023-04-07T21:42:13.420Z,5.57
2023-04-07T21:44:40.281Z,5.47
2023-04-07T21:47:12.205Z,5.53
2023-04-07T21:49:41.393Z,6.10
2023-04-07T21:52:08.198Z,6.03
2023-04-07T21:54:34.952Z,6.07
2023-04-07T21:57:01.865Z,5.53
2023-04-07T21:59:28.749Z,5.50
2023-04-07T22:01:56.277Z,6.10
2023-04-07T22:04:26.034Z,5.60
2023-04-07T22:06:52.890Z,5.70
2023-04-07T22:09:20.071Z,5.87
2023-04-07T22:11:46.889Z,5.47
2023-04-07T22:14:14.111Z,6.30
2023-04-07T22:16:43.603Z,5.53
2023-04-07T22:19:10.470Z,5.73
2023-04-07T22:21:37.651Z,5.67
2023-04-07T22:24:07.059Z,5.47
2023-04-07T22:26:33.840Z,5.77
2023-04-07T22:29:02.849Z,6.20
2023-04-07T22:31:29.711Z,6.13
2023-04-07T22:33:56.674Z,6.30
2023-04-07T22:36:26.747Z,6.33
2023-04-07T22:38:53.537Z,6.80
2023-04-07T22:41:24.911Z,7.00
2023-04-07T22:43:51.830Z,7.60
2023-04-07T22:46:18.614Z,8.00
2023-04-07T22:48:45.447Z,8.10
2023-04-07T22:51:14.644Z,7.70
2023-04-07T22:53:41.451Z,8.90
2023-04-07T22:56:08.421Z,8.50
2023-04-07T22:58:35.335Z,9.30
2023-04-07T23:01:02.209Z,9.93
2023-04-07T23:03:29.298Z,11.00
2023-04-07T23:05:56.265Z,10.37
2023-04-07T23:08:25.469Z,11.23
2023-04-07T23:10:52.259Z,11.60
2023-04-07T23:13:21.633Z,10.30
2023-04-07T23:15:50.846Z,10.70
2023-04-07T23:18:17.636Z,10.70
2023-04-07T23:20:52.115Z,9.73
2023-04-07T23:23:18.911Z,9.70
2023-04-07T23:25:46.118Z,10.23
2023-04-07T23:28:15.550Z,10.60
2023-04-07T23:30:42.807Z,10.37
2023-04-07T23:33:12.456Z,12.37
2023-04-07T23:35:39.711Z,12.77
2023-04-07T23:38:08.848Z,11.63
2023-04-07T23:40:35.693Z,11.43
2023-04-07T23:43:04.586Z,12.33
2023-04-07T23:45:31.399Z,11.93
2023-04-07T23:47:58.337Z,13.03
2023-04-07T23:50:29.872Z,13.30
2023-04-07T23:52:59.110Z,14.57
2023-04-07T23:55:27.100Z,13.20
2023-04-07T23:57:56.419Z,12.97
